createdAt,value
2023-05-05T00:01:02.478Z,16.50
2023-05-05T00:03:49.392Z,16.50
2023-05-05T00:06:36.278Z,16.50
2023-05-05T00:09:23.421Z,16.50
2023-05-05T00:12:10.254Z,16.50
2023-05-05T00:14:57.043Z,16.50
2023-05-05T00:17:43.742Z,16.50
2023-05-05T00:20:31.097Z,16.50
2023-05-05T00:23:19.891Z,16.40
2023-05-05T00:26:06.748Z,16.40
2023-05-05T00:28:53.500Z,16.40
2023-05-05T00:31:40.740Z,16.40
2023-05-05T00:34:27.608Z,16.40
2023-05-05T00:37:14.325Z,16.40
2023-05-05T00:40:01.029Z,16.40
2023-05-05T00:42:50.563Z,16.30
2023-05-05T00:45:39.062Z,16.40
2023-05-05T00:48:25.970Z,16.40
2023-05-05T00:51:13.321Z,16.30
2023-05-05T00:54:00.789Z,16.30
2023-05-05T00:56:48.908Z,16.30
2023-05-05T00:59:36.018Z,16.20
2023-05-05T01:02:22.907Z,16.30
2023-05-05T01:05:10.178Z,16.20
2023-05-05T01:08:05.470Z,16.20
2023-05-05T01:10:55.148Z,16.20
2023-05-05T01:13:42.881Z,16.00
2023-05-05T01:16:31.563Z,15.80
2023-05-05T01:19:36.775Z,15.80
2023-05-05T01:22:25.073Z,15.70
2023-05-05T01:25:11.874Z,15.60
2023-05-05T01:28:17.515Z,15.50
2023-05-05T01:31:16.582Z,15.50
2023-05-05T01:34:08.626Z,15.50
2023-05-05T01:36:58.369Z,15.40
2023-05-05T01:39:46.448Z,15.40
2023-05-05T01:42:33.964Z,15.30
2023-05-05T01:45:22.324Z,15.30
2023-05-05T01:48:09.615Z,15.20
2023-05-05T01:50:57.600Z,15.00
2023-05-05T01:53:47.132Z,14.90
2023-05-05T01:56:34.688Z,14.90
2023-05-05T01:59:22.285Z,14.80
2023-05-05T02:02:10.317Z,14.80
2023-05-05T02:04:58.288Z,14.70
2023-05-05T02:07:46.258Z,14.60
2023-05-05T02:10:33.039Z,14.60
2023-05-05T02:13:20.465Z,14.60
2023-05-05T02:16:08.515Z,14.60
2023-05-05T02:18:55.728Z,14.60
2023-05-05T02:21:42.556Z,14.60
2023-05-05T02:24:29.374Z,14.50
2023-05-05T02:27:17.757Z,14.50
2023-05-05T02:30:09.597Z,14.40
2023-05-05T02:32:59.764Z,14.40
2023-05-05T02:35:47.145Z,14.40
2023-05-05T02:38:34.429Z,14.40
2023-05-05T02:41:21.822Z,14.30
2023-05-05T02:44:09.645Z,14.30
2023-05-05T02:46:56.506Z,14.40
2023-05-05T02:49:43.220Z,14.40
2023-05-05T02:52:30.057Z,14.40
2023-05-05T02:55:16.850Z,14.30
2023-05-05T02:58:03.572Z,14.30
2023-05-05T03:00:53.523Z,14.30
2023-05-05T03:03:41.065Z,14.20
2023-05-05T03:06:29.059Z,14.30
2023-05-05T03:09:25.885Z,14.30
2023-05-05T03:12:16.628Z,14.40
2023-05-05T03:15:04.661Z,14.60
2023-05-05T03:17:51.806Z,14.70
2023-05-05T03:20:42.152Z,14.70
2023-05-05T03:23:28.881Z,14.80
2023-05-05T03:26:17.117Z,14.80
2023-05-05T03:29:06.841Z,14.90
2023-05-05T03:31:53.683Z,14.90
2023-05-05T03:34:40.527Z,14.80
2023-05-05T03:37:27.278Z,14.80
2023-05-05T03:40:13.962Z,14.80
2023-05-05T03:43:00.766Z,14.70
2023-05-05T03:45:47.532Z,14.60
2023-05-05T03:48:34.277Z,14.40
2023-05-05T03:51:21.001Z,14.30
2023-05-05T03:54:07.737Z,14.20
2023-05-05T03:56:54.791Z,14.10
2023-05-05T03:59:41.550Z,14.10
2023-05-05T04:02:28.377Z,14.00
2023-05-05T04:05:15.981Z,14.00
2023-05-05T04:08:03.423Z,14.10
2023-05-05T04:10:50.138Z,14.10
2023-05-05T04:13:37.003Z,14.10
2023-05-05T04:16:23.876Z,14.20
2023-05-05T04:19:13.054Z,14.20
2023-05-05T04:21:59.957Z,14.30
2023-05-05T04:24:47.288Z,14.30
2023-05-05T04:27:34.252Z,14.30
2023-05-05T04:30:21.031Z,14.20
2023-05-05T04:33:07.821Z,14.20
2023-05-05T04:35:54.601Z,14.20
2023-05-05T04:38:41.657Z,14.20
2023-05-05T04:41:30.017Z,14.30
2023-05-05T04:44:16.954Z,14.30
2023-05-05T04:47:04.275Z,14.30
2023-05-05T04:49:51.074Z,14.30
2023-05-05T04:52:37.870Z,14.30
2023-05-05T04:55:24.670Z,14.20
2023-05-05T04:58:11.466Z,14.20
2023-05-05T05:00:58.683Z,14.20
2023-05-05T05:03:46.015Z,14.30
2023-05-05T05:06:33.458Z,14.40
2023-05-05T05:09:20.199Z,14.40
2023-05-05T05:12:08.063Z,14.40
2023-05-05T05:14:54.740Z,14.50
2023-05-05T05:17:41.614Z,14.40
2023-05-05T05:20:29.672Z,14.40
2023-05-05T05:23:16.422Z,14.30
2023-05-05T05:26:05.263Z,14.30
2023-05-05T05:28:52.019Z,14.30
2023-05-05T05:31:39.959Z,14.30
2023-05-05T05:34:26.830Z,14.30
2023-05-05T05:37:13.512Z,14.30
2023-05-05T05:40:00.298Z,14.40
2023-05-05T05:42:46.974Z,14.50
2023-05-05T05:45:33.704Z,14.40
2023-05-05T05:48:21.477Z,14.40
2023-05-05T05:51:08.298Z,14.40
2023-05-05T05:53:56.313Z,14.30
2023-05-05T05:56:44.240Z,14.30
2023-05-05T05:59:31.049Z,14.40
2023-05-05T06:02:17.912Z,14.40
2023-05-05T06:05:04.996Z,14.50
2023-05-05T06:07:51.667Z,14.70
2023-05-05T06:10:38.384Z,14.80
2023-05-05T06:13:25.073Z,14.90
2023-05-05T06:16:11.846Z,14.90
2023-05-05T06:18:58.623Z,14.90
2023-05-05T06:21:45.320Z,14.90
2023-05-05T06:24:32.184Z,15.00
2023-05-05T06:27:18.961Z,15.10
2023-05-05T06:30:06.904Z,15.10
2023-05-05T06:32:54.400Z,15.20
2023-05-05T06:35:41.316Z,15.10
2023-05-05T06:38:28.079Z,15.00
2023-05-05T06:41:14.810Z,15.00
2023-05-05T06:44:01.549Z,14.90
2023-05-05T06:46:48.293Z,14.90
2023-05-05T06:49:34.995Z,14.90
2023-05-05T06:52:22.613Z,14.90
2023-05-05T06:55:09.574Z,14.90
2023-05-05T06:57:56.277Z,15.00
2023-05-05T07:00:43.522Z,15.00
2023-05-05T07:03:30.335Z,15.00
2023-05-05T07:06:17.107Z,15.10
2023-05-05T07:09:04.455Z,15.20
2023-05-05T07:11:51.279Z,15.30
2023-05-05T07:14:38.050Z,15.40
2023-05-05T07:17:24.733Z,15.60
2023-05-05T07:20:12.071Z,15.80
2023-05-05T07:22:58.796Z,16.00
2023-05-05T07:25:45.619Z,16.20
2023-05-05T07:28:32.312Z,16.30
2023-05-05T07:31:22.209Z,16.60
2023-05-05T07:34:08.916Z,16.80
2023-05-05T07:36:56.460Z,16.90
2023-05-05T07:39:43.154Z,17.00
2023-05-05T07:42:29.936Z,17.10
2023-05-05T07:45:16.779Z,17.30
2023-05-05T07:48:03.814Z,17.40
2023-05-05T07:50:52.482Z,17.50
2023-05-05T07:53:39.346Z,17.50
2023-05-05T07:56:26.104Z,17.60
2023-05-05T07:59:12.870Z,17.70
2023-05-05T08:01:59.572Z,17.90
2023-05-05T08:04:46.551Z,17.90
2023-05-05T08:07:33.320Z,17.90
2023-05-05T08:10:22.399Z,17.90
2023-05-05T08:13:09.152Z,18.10
2023-05-05T08:15:56.242Z,18.30
2023-05-05T08:18:42.978Z,18.50
2023-05-05T08:21:29.719Z,18.80
2023-05-05T08:24:16.567Z,19.00
2023-05-05T08:27:03.678Z,19.20
2023-05-05T08:29:50.459Z,19.40
2023-05-05T08:32:38.434Z,19.50
2023-05-05T08:35:25.441Z,19.50
2023-05-05T08:38:12.605Z,19.50
2023-05-05T08:40:59.299Z,19.60
2023-05-05T08:43:46.907Z,19.60
2023-05-05T08:46:35.510Z,19.80
2023-05-05T08:49:22.591Z,19.80
2023-05-05T08:52:11.640Z,19.70
2023-05-05T08:55:03.971Z,19.70
2023-05-05T08:57:52.009Z,19.50
2023-05-05T09:00:40.334Z,19.40
2023-05-05T09:03:27.370Z,19.30
2023-05-05T09:06:14.158Z,19.00
2023-05-05T09:09:01.289Z,18.90
2023-05-05T09:11:48.144Z,18.90
2023-05-05T09:14:34.851Z,18.90
2023-05-05T09:17:25.615Z,19.10
2023-05-05T09:20:13.170Z,19.40
2023-05-05T09:23:06.982Z,19.90
2023-05-05T09:26:08.893Z,20.20
2023-05-05T09:28:55.959Z,20.70
2023-05-05T09:31:42.708Z,21.00
2023-05-05T09:34:29.432Z,21.20
2023-05-05T09:37:27.062Z,21.10
2023-05-05T09:40:17.505Z,21.10
2023-05-05T09:43:04.478Z,21.10
2023-05-05T09:45:51.233Z,21.00
2023-05-05T09:48:37.932Z,20.90
2023-05-05T09:51:31.966Z,21.00
2023-05-05T09:54:22.374Z,21.40
2023-05-05T09:57:09.165Z,21.70
2023-05-05T10:00:00.383Z,22.10
2023-05-05T10:02:47.369Z,22.40
2023-05-05T10:05:46.329Z,22.60
2023-05-05T10:08:34.272Z,22.80
2023-05-05T10:11:21.024Z,23.00
2023-05-05T10:14:08.205Z,23.00
2023-05-05T10:16:55.606Z,22.50
2023-05-05T10:19:42.610Z,22.50
2023-05-05T10:22:32.894Z,22.60
2023-05-05T10:25:33.853Z,22.70
2023-05-05T10:28:23.658Z,23.00
2023-05-05T10:31:24.584Z,22.70
2023-05-05T10:34:35.823Z,23.00
2023-05-05T10:37:23.026Z,23.40
2023-05-05T10:40:10.540Z,23.60
2023-05-05T10:42:58.321Z,23.20
2023-05-05T10:45:45.359Z,23.20
2023-05-05T10:48:34.865Z,23.10
2023-05-05T10:51:39.203Z,23.00
2023-05-05T10:54:27.500Z,23.40
2023-05-05T10:57:15.138Z,23.70
2023-05-05T11:00:01.903Z,23.50
2023-05-05T11:02:49.218Z,23.20
2023-05-05T11:05:36.007Z,22.90
2023-05-05T11:08:26.376Z,22.60
2023-05-05T11:11:13.241Z,22.20
2023-05-05T11:14:19.381Z,22.00
2023-05-05T11:17:26.614Z,21.70
2023-05-05T11:20:13.373Z,21.50
2023-05-05T11:23:03.351Z,21.60
2023-05-05T11:25:51.552Z,21.70
2023-05-05T11:28:58.263Z,21.90
2023-05-05T11:31:47.940Z,22.10
2023-05-05T11:34:34.648Z,22.20
2023-05-05T11:37:24.566Z,22.30
2023-05-05T11:40:21.010Z,22.40
2023-05-05T11:43:07.720Z,22.60
2023-05-05T11:46:17.775Z,23.60
2023-05-05T11:49:04.698Z,25.60
2023-05-05T11:52:01.802Z,26.50
2023-05-05T11:54:49.252Z,25.70
2023-05-05T11:57:36.011Z,25.40
2023-05-05T12:00:31.799Z,26.40
2023-05-05T12:03:18.600Z,27.60
2023-05-05T12:09:16.841Z,27.60
2023-05-05T12:12:03.807Z,26.90
2023-05-05T12:14:53.585Z,26.50
2023-05-05T12:17:42.464Z,26.60
2023-05-05T12:20:30.250Z,26.60
2023-05-05T12:23:16.938Z,26.10
2023-05-05T12:26:03.806Z,25.30
2023-05-05T12:28:50.497Z,24.60
2023-05-05T12:31:38.021Z,24.10
2023-05-05T12:34:24.796Z,23.60
2023-05-05T12:37:11.706Z,23.20
2023-05-05T12:39:58.705Z,22.80
2023-05-05T12:42:46.335Z,22.30
2023-05-05T12:45:33.205Z,21.90
2023-05-05T12:48:22.851Z,21.70
2023-05-05T12:51:23.414Z,21.50
2023-05-05T12:54:11.184Z,21.50
2023-05-05T12:56:58.644Z,21.40
2023-05-05T12:59:45.440Z,21.20
2023-05-05T13:02:35.338Z,20.90
2023-05-05T13:05:36.692Z,20.80
2023-05-05T13:08:23.463Z,20.90
2023-05-05T13:11:10.421Z,21.40
2023-05-05T13:13:57.114Z,22.00
2023-05-05T13:16:44.032Z,22.50
2023-05-05T13:19:30.806Z,23.00
2023-05-05T13:22:17.550Z,23.40
2023-05-05T13:25:04.525Z,23.40
2023-05-05T13:27:51.386Z,23.30
2023-05-05T13:30:38.175Z,23.00
2023-05-05T13:33:25.231Z,22.80
2023-05-05T13:36:11.952Z,22.60
2023-05-05T13:38:58.642Z,22.40
2023-05-05T13:41:45.442Z,22.30
2023-05-05T13:44:32.285Z,22.20
2023-05-05T13:47:19.139Z,22.30
2023-05-05T13:50:06.363Z,22.30
2023-05-05T13:52:53.097Z,22.50
2023-05-05T13:55:39.902Z,22.60
2023-05-05T13:58:26.621Z,22.60
2023-05-05T14:01:13.601Z,22.60
2023-05-05T14:04:02.704Z,22.60
2023-05-05T14:06:50.509Z,22.40
2023-05-05T14:09:37.228Z,22.00
2023-05-05T14:12:24.100Z,21.60
2023-05-05T14:15:11.782Z,21.20
2023-05-05T14:17:59.861Z,20.90
2023-05-05T14:20:47.042Z,20.60
2023-05-05T14:23:33.741Z,20.30
2023-05-05T14:26:20.498Z,20.00
2023-05-05T14:29:07.232Z,19.70
2023-05-05T14:31:53.946Z,19.30
2023-05-05T14:34:40.765Z,19.10
2023-05-05T14:37:27.536Z,19.00
2023-05-05T14:40:14.249Z,19.00
2023-05-05T14:43:01.095Z,19.00
2023-05-05T14:45:47.905Z,18.60
2023-05-05T14:48:34.693Z,18.20
2023-05-05T14:51:21.443Z,17.90
2023-05-05T14:54:20.504Z,17.70
2023-05-05T14:57:13.879Z,17.40
2023-05-05T15:00:00.743Z,17.30
2023-05-05T15:02:48.506Z,17.20
2023-05-05T15:05:35.436Z,17.00
2023-05-05T15:08:22.183Z,16.60
2023-05-05T15:11:08.936Z,16.50
2023-05-05T15:13:55.737Z,16.50
2023-05-05T15:16:42.479Z,16.50
2023-05-05T15:19:29.566Z,16.50
2023-05-05T15:22:16.298Z,16.60
2023-05-05T15:25:03.090Z,16.60
2023-05-05T15:27:50.002Z,16.70
2023-05-05T15:30:36.782Z,16.60
2023-05-05T15:33:23.503Z,16.60
2023-05-05T15:36:10.450Z,16.50
2023-05-05T15:38:57.126Z,16.40
2023-05-05T15:41:43.935Z,16.30
2023-05-05T15:44:31.397Z,16.20
2023-05-05T15:47:18.310Z,16.10
2023-05-05T15:50:05.896Z,16.00
2023-05-05T15:52:52.883Z,16.00
2023-05-05T15:55:40.249Z,16.00
2023-05-05T15:58:27.006Z,15.90
2023-05-05T16:01:13.755Z,15.90
2023-05-05T16:04:01.320Z,15.80
2023-05-05T16:06:48.096Z,15.80
2023-05-05T16:09:34.844Z,15.90
2023-05-05T16:12:21.544Z,16.10
2023-05-05T16:15:08.765Z,16.20
2023-05-05T16:17:55.777Z,16.30
2023-05-05T16:20:42.538Z,16.40
2023-05-05T16:23:29.247Z,16.30
2023-05-05T16:26:15.976Z,16.10
2023-05-05T16:29:02.692Z,15.90
2023-05-05T16:31:49.648Z,15.80
2023-05-05T16:34:36.376Z,15.80
2023-05-05T16:37:23.155Z,16.00
2023-05-05T16:40:10.056Z,16.30
2023-05-05T16:42:56.772Z,16.70
2023-05-05T16:45:43.585Z,17.00
2023-05-05T16:48:30.316Z,17.30
2023-05-05T16:51:17.062Z,17.50
2023-05-05T16:54:03.911Z,17.60
2023-05-05T16:56:52.273Z,17.70
2023-05-05T16:59:38.996Z,17.70
2023-05-05T17:02:25.838Z,17.70
2023-05-05T17:05:12.888Z,17.70
2023-05-05T17:07:59.846Z,17.70
2023-05-05T17:10:46.681Z,17.80
2023-05-05T17:13:33.376Z,17.80
2023-05-05T17:16:20.170Z,17.70
2023-05-05T17:19:06.892Z,17.70
2023-05-05T17:21:54.846Z,17.70
2023-05-05T17:24:41.584Z,17.60
2023-05-05T17:27:28.341Z,17.50
2023-05-05T17:30:15.083Z,17.60
2023-05-05T17:33:01.901Z,17.50
2023-05-05T17:35:48.628Z,17.50
2023-05-05T17:38:35.414Z,17.40
2023-05-05T17:41:25.623Z,17.30
2023-05-05T17:44:12.463Z,17.20
2023-05-05T17:46:59.342Z,17.10
2023-05-05T17:49:53.420Z,17.10
2023-05-05T17:52:41.179Z,17.10
2023-05-05T17:55:28.506Z,17.00
2023-05-05T17:58:15.214Z,16.90
2023-05-05T18:01:02.049Z,16.80
2023-05-05T18:03:48.817Z,16.70
2023-05-05T18:06:35.648Z,16.50
2023-05-05T18:09:23.340Z,16.40
2023-05-05T18:12:13.067Z,16.30
2023-05-05T18:15:00.515Z,16.30
2023-05-05T18:17:50.365Z,16.30
2023-05-05T18:20:37.122Z,16.30
2023-05-05T18:23:26.251Z,16.20
2023-05-05T18:26:14.086Z,16.10
2023-05-05T18:29:00.822Z,16.10
2023-05-05T18:31:52.997Z,16.10
2023-05-05T18:34:39.930Z,16.10
2023-05-05T18:37:29.648Z,16.00
2023-05-05T18:40:18.192Z,15.90
2023-05-05T18:43:05.056Z,15.80
2023-05-05T18:45:52.246Z,15.80
2023-05-05T18:48:38.991Z,15.80
2023-05-05T18:51:26.324Z,15.80
2023-05-05T18:54:13.168Z,15.80
2023-05-05T18:57:01.122Z,15.70
2023-05-05T18:59:50.323Z,15.70
2023-05-05T19:02:39.339Z,15.60
2023-05-05T19:05:26.726Z,15.60
2023-05-05T19:08:13.480Z,15.60
2023-05-05T19:11:00.199Z,15.50
2023-05-05T19:13:49.382Z,15.40
2023-05-05T19:16:36.139Z,15.30
2023-05-05T19:19:22.894Z,15.20
2023-05-05T19:22:09.666Z,15.20
2023-05-05T19:24:56.495Z,15.40
2023-05-05T19:27:43.436Z,15.20
2023-05-05T19:30:31.597Z,15.20
2023-05-05T19:33:18.324Z,15.10
2023-05-05T19:36:05.171Z,15.10
2023-05-05T19:38:51.888Z,15.10
2023-05-05T19:41:38.664Z,15.00
2023-05-05T19:44:25.459Z,14.90
2023-05-05T19:47:12.268Z,14.80
2023-05-05T19:49:59.012Z,14.80
2023-05-05T19:52:45.821Z,14.80
2023-05-05T19:55:33.262Z,14.70
2023-05-05T19:58:19.994Z,14.60
2023-05-05T20:01:06.882Z,14.50
2023-05-05T20:03:54.830Z,14.40
2023-05-05T20:06:41.749Z,14.40
2023-05-05T20:09:28.436Z,14.50
2023-05-05T20:12:16.942Z,14.50
2023-05-05T20:15:03.789Z,14.50
2023-05-05T20:17:51.881Z,14.40
2023-05-05T20:20:38.633Z,14.40
2023-05-05T20:23:26.033Z,14.40
2023-05-05T20:26:12.924Z,14.40
2023-05-05T20:31:47.828Z,14.40
2023-05-05T20:34:34.581Z,14.40
2023-05-05T20:37:22.322Z,14.30
2023-05-05T20:40:09.598Z,14.30
2023-05-05T20:42:56.442Z,14.30
2023-05-05T20:45:43.164Z,14.30
2023-05-05T20:48:29.877Z,14.30
2023-05-05T20:51:16.664Z,14.30
2023-05-05T20:54:03.633Z,14.30
2023-05-05T20:56:50.792Z,14.20
2023-05-05T20:59:37.925Z,14.10
2023-05-05T21:02:24.756Z,14.00
2023-05-05T21:05:11.848Z,14.00
2023-05-05T21:08:00.876Z,13.90
2023-05-05T21:10:48.098Z,13.80
2023-05-05T21:13:34.842Z,13.80
2023-05-05T21:16:21.653Z,13.80
2023-05-05T21:19:08.499Z,13.80
2023-05-05T21:21:59.189Z,13.90
2023-05-05T21:24:46.239Z,13.90
2023-05-05T21:27:32.977Z,13.90
2023-05-05T21:30:19.701Z,13.90
2023-05-05T21:33:06.461Z,14.00
2023-05-05T21:35:53.364Z,13.90
2023-05-05T21:38:40.133Z,13.80
2023-05-05T21:41:27.010Z,13.70
2023-05-05T21:44:14.041Z,13.50
2023-05-05T21:47:00.953Z,13.50
2023-05-05T21:49:47.676Z,13.60
2023-05-05T21:52:34.422Z,13.50
2023-05-05T21:55:21.231Z,13.50
2023-05-05T21:58:08.006Z,13.60
2023-05-05T22:00:54.738Z,13.50
2023-05-05T22:03:43.649Z,13.50
2023-05-05T22:06:30.723Z,13.40
2023-05-05T22:09:17.478Z,13.40
2023-05-05T22:12:04.655Z,13.50
2023-05-05T22:14:51.500Z,13.50
2023-05-05T22:17:38.216Z,13.50
2023-05-05T22:20:24.923Z,13.40
2023-05-05T22:23:11.817Z,13.40
2023-05-05T22:25:58.495Z,13.40
2023-05-05T22:28:45.389Z,13.40
2023-05-05T22:31:32.665Z,13.40
2023-05-05T22:34:20.568Z,13.40
2023-05-05T22:37:07.463Z,13.30
2023-05-05T22:39:54.198Z,13.30
2023-05-05T22:42:40.886Z,13.30
2023-05-05T22:45:27.581Z,13.30
2023-05-05T22:48:14.977Z,13.20
2023-05-05T22:51:03.553Z,13.20
2023-05-05T22:53:50.277Z,13.20
2023-05-05T22:56:37.032Z,13.20
2023-05-05T22:59:23.762Z,13.10
2023-05-05T23:02:10.489Z,13.00
2023-05-05T23:04:57.168Z,12.90
2023-05-05T23:07:43.880Z,12.80
2023-05-05T23:10:30.737Z,12.70
2023-05-05T23:13:17.845Z,12.80
2023-05-05T23:16:20.750Z,12.80
2023-05-05T23:19:22.612Z,12.80
2023-05-05T23:22:09.301Z,12.80
2023-05-05T23:24:56.098Z,12.80
2023-05-05T23:27:43.906Z,12.80
2023-05-05T23:30:30.830Z,12.80
2023-05-05T23:33:17.602Z,12.80
2023-05-05T23:36:04.451Z,12.80
2023-05-05T23:38:51.147Z,12.90
2023-05-05T23:41:37.898Z,13.00
2023-05-05T23:44:24.863Z,13.00
2023-05-05T23:47:11.619Z,12.90
2023-05-05T23:49:58.610Z,13.00
2023-05-05T23:52:45.360Z,13.10
2023-05-05T23:55:32.071Z,13.20
2023-05-05T23:58:18.787Z,13.20
